Terminal Aerodrome Forecast
Issued by NWS

Home | Current Version | Previous Version | Text Only | Print | Product List | Glossary On
Versions: 1 2 3 4 5 6 7 8 9 10 11 12 13 14 15 16 17 18 19 20 21 22
000
FTUS44 KLIX 041100
TAFGPT
TAF
KGPT 041122Z 0412/0512 17008KT 1SM BR OVC002
     FM041500 17009KT P6SM BKN008
     FM042200 17010KT P6SM SCT020
     FM050600 20009KT 5SM SHRA BKN050
     FM050900 24009KT 5SM SHRA BKN008
     FM051100 28009KT 5SM SHRA BKN008=

USA.gov is the U.S. government's official web portal to all federal, state and local government web resources and services.